Counselor, New Mexico
Current Conditions -  °F | °C
As of 2:53 AM on Sunday 23 Nov 2014 (Local Time) from KFMN Reporting Station
Light Rain Light Rain  
Wind Chill: 33°   Ceiling: 6000
Heat Index: 42°   Visibility: 10mi
Dew Point: 30°   Wind: 20mph
Humidity: 62%   Direction: 300°WNW
Pressure: 29.8"   Gusts: 38mph
Location:  36.21°N, 107.46°W
Report Text: KFMN 230953Z AUTO 30017G33KT 10SM -RA FEW048 OVC060 06/M01 A2980 RMK AO2 PK WND 28041/0930 RAB12 SLP074 P0000 T00561011
Loading
Personal Weather Stations






























Interactive Weather Map New forecast layout! Learn more

10-Day Weather Forecast

Advertisements
Track Severe Weather on mobile